createdAt,value
2024-02-19T00:01:47.129Z,26.33
2024-02-19T00:04:49.354Z,25.80
2024-02-19T00:07:52.476Z,27.98
2024-02-19T00:10:54.640Z,32.13
2024-02-19T00:13:58.070Z,33.10
2024-02-19T00:17:00.557Z,31.63
2024-02-19T00:20:04.222Z,29.55
2024-02-19T00:23:06.344Z,27.42
2024-02-19T00:26:08.499Z,34.72
2024-02-19T00:29:10.881Z,29.05
2024-02-19T00:32:13.011Z,28.25
2024-02-19T00:35:15.069Z,30.23
2024-02-19T00:38:17.091Z,30.35
2024-02-19T00:41:20.918Z,25.75
2024-02-19T00:44:23.782Z,27.33
2024-02-19T00:47:25.848Z,27.23
2024-02-19T00:50:28.966Z,24.15
2024-02-19T00:53:32.081Z,25.45
2024-02-19T00:56:35.450Z,27.73
2024-02-19T00:59:37.986Z,28.67
2024-02-19T01:02:42.213Z,23.17
2024-02-19T01:05:44.769Z,25.20
2024-02-19T01:08:48.069Z,24.02
2024-02-19T01:11:57.669Z,25.20
2024-02-19T01:14:59.751Z,22.15
2024-02-19T01:18:02.487Z,25.15
2024-02-19T01:21:04.939Z,29.05
2024-02-19T01:24:09.407Z,27.20
2024-02-19T01:27:11.689Z,23.50
2024-02-19T01:30:15.255Z,26.80
2024-02-19T01:33:17.534Z,26.25
2024-02-19T01:36:20.550Z,28.17
2024-02-19T01:39:23.480Z,25.13
2024-02-19T01:42:25.549Z,25.05
2024-02-19T01:45:27.667Z,28.60
2024-02-19T01:48:29.861Z,28.02
2024-02-19T01:51:34.100Z,23.58
2024-02-19T01:54:37.430Z,23.13
2024-02-19T01:57:41.238Z,25.73
2024-02-19T02:00:43.447Z,25.90
2024-02-19T02:03:48.261Z,21.83
2024-02-19T02:06:50.550Z,23.85
2024-02-19T02:09:52.671Z,24.55
2024-02-19T02:12:55.167Z,22.88
2024-02-19T02:15:57.260Z,25.42
2024-02-19T02:19:00.097Z,25.67
2024-02-19T02:22:02.290Z,25.35
2024-02-19T02:25:06.032Z,33.33
2024-02-19T02:28:08.188Z,25.88
2024-02-19T02:31:10.327Z,23.50
2024-02-19T02:34:12.660Z,26.38
2024-02-19T02:37:15.935Z,39.58
2024-02-19T02:40:18.574Z,33.15
2024-02-19T02:43:22.088Z,28.83
2024-02-19T02:46:24.247Z,28.42
2024-02-19T02:49:26.377Z,35.97
2024-02-19T02:52:28.484Z,32.90
2024-02-19T02:55:31.046Z,34.17
2024-02-19T02:58:34.808Z,34.25
2024-02-19T03:01:37.391Z,33.25
2024-02-19T03:04:39.848Z,33.78
2024-02-19T03:07:41.995Z,33.05
2024-02-19T03:10:46.030Z,27.25
2024-02-19T03:13:50.488Z,32.05
2024-02-19T03:16:52.540Z,30.60
2024-02-19T03:19:54.900Z,29.40
2024-02-19T03:22:57.135Z,27.23
2024-02-19T03:25:59.397Z,25.83
2024-02-19T03:29:02.259Z,25.13
2024-02-19T03:32:05.043Z,25.58
2024-02-19T03:35:07.720Z,28.90
2024-02-19T03:38:11.056Z,26.00
2024-02-19T03:41:13.430Z,22.80
2024-02-19T03:44:17.453Z,24.65
2024-02-19T03:47:19.473Z,27.67
2024-02-19T03:50:24.815Z,24.70
2024-02-19T03:53:27.719Z,28.80
2024-02-19T03:56:29.643Z,30.33
2024-02-19T03:59:33.276Z,30.60
2024-02-19T04:02:37.629Z,15.15
2024-02-19T04:05:39.638Z,25.20
2024-02-19T04:08:42.427Z,28.40
2024-02-19T04:11:45.951Z,37.72
2024-02-19T04:14:48.279Z,37.17
2024-02-19T04:17:51.716Z,33.63
2024-02-19T04:20:53.875Z,33.25
2024-02-19T04:23:57.025Z,33.78
2024-02-19T04:26:59.711Z,33.95
2024-02-19T04:30:02.608Z,33.03
2024-02-19T04:33:06.349Z,29.15
2024-02-19T04:36:08.585Z,37.25
2024-02-19T04:39:12.204Z,41.40
2024-02-19T04:42:15.496Z,41.90
2024-02-19T04:45:19.157Z,58.90
2024-02-19T04:48:24.854Z,57.70
2024-02-19T04:51:27.579Z,41.58
2024-02-19T04:54:30.001Z,40.72
2024-02-19T04:57:32.310Z,39.85
2024-02-19T05:00:35.449Z,45.60
2024-02-19T05:03:37.642Z,45.78
2024-02-19T05:06:41.702Z,40.83
2024-02-19T05:09:44.821Z,50.53
2024-02-19T05:12:47.640Z,44.40
2024-02-19T05:15:49.719Z,46.72
2024-02-19T05:18:51.875Z,46.10
2024-02-19T05:21:55.467Z,44.83
2024-02-19T05:24:57.861Z,35.70
2024-02-19T05:28:00.215Z,44.88
2024-02-19T05:31:03.538Z,41.00
2024-02-19T05:34:07.115Z,45.58
2024-02-19T05:37:09.251Z,42.47
2024-02-19T05:40:14.457Z,36.13
2024-02-19T05:43:16.609Z,42.60
2024-02-19T05:46:19.883Z,35.35
2024-02-19T05:49:22.338Z,35.13
2024-02-19T05:52:24.511Z,39.13
2024-02-19T05:55:28.442Z,31.65
2024-02-19T05:58:32.546Z,32.85
2024-02-19T06:01:34.716Z,33.88
2024-02-19T06:04:38.723Z,38.83
2024-02-19T06:07:40.976Z,33.70
2024-02-19T06:10:47.066Z,31.30
2024-02-19T06:16:51.725Z,41.20
2024-02-19T06:19:53.725Z,57.28
2024-02-19T06:22:56.170Z,79.03
2024-02-19T06:26:04.478Z,54.38
2024-02-19T06:29:09.832Z,50.50
2024-02-19T06:32:14.074Z,57.65
2024-02-19T06:35:16.713Z,59.00
2024-02-19T06:38:18.875Z,69.55
2024-02-19T06:41:23.063Z,47.88
2024-02-19T06:44:25.945Z,45.40
2024-02-19T06:47:28.007Z,44.97
2024-02-19T06:50:30.952Z,45.10
2024-02-19T06:53:33.005Z,38.85
2024-02-19T06:56:36.178Z,35.80
2024-02-19T06:59:38.492Z,33.88
2024-02-19T07:02:40.893Z,33.03
2024-02-19T07:05:45.759Z,32.28
2024-02-19T07:08:48.692Z,32.75
2024-02-19T07:11:50.782Z,42.45
2024-02-19T07:14:52.991Z,42.10
2024-02-19T07:17:55.197Z,37.55
2024-02-19T07:20:58.438Z,35.97
2024-02-19T07:24:00.385Z,35.17
2024-02-19T07:27:02.442Z,36.38
2024-02-19T07:30:04.867Z,39.60
2024-02-19T07:33:07.102Z,40.70
2024-02-19T07:36:10.287Z,42.42
2024-02-19T07:39:13.323Z,36.90
2024-02-19T07:42:16.004Z,44.55
2024-02-19T07:45:19.055Z,42.25
2024-02-19T07:48:21.327Z,33.35
2024-02-19T07:51:23.774Z,36.83
2024-02-19T07:54:27.272Z,32.72
2024-02-19T07:57:30.655Z,33.17
2024-02-19T08:00:33.115Z,33.38
2024-02-19T08:03:35.523Z,34.10
2024-02-19T08:06:37.653Z,35.78
2024-02-19T08:09:39.815Z,30.85
2024-02-19T08:12:43.724Z,31.73
2024-02-19T08:15:46.563Z,42.80
2024-02-19T08:18:48.915Z,36.53
2024-02-19T08:21:51.070Z,40.00
2024-02-19T08:24:53.470Z,44.10
2024-02-19T08:27:55.856Z,36.83
2024-02-19T08:30:58.587Z,40.90
2024-02-19T08:34:02.180Z,43.65
2024-02-19T08:37:07.360Z,41.30
2024-02-19T08:40:10.053Z,46.70
2024-02-19T08:43:13.103Z,42.53
2024-02-19T08:46:16.595Z,38.85
2024-02-19T08:49:19.834Z,38.08
2024-02-19T08:52:23.212Z,38.72
2024-02-19T08:55:25.440Z,35.08
2024-02-19T08:58:32.769Z,35.42
2024-02-19T09:01:36.917Z,33.92
2024-02-19T09:04:39.496Z,35.42
2024-02-19T09:07:42.979Z,31.98
2024-02-19T09:10:45.813Z,30.92
2024-02-19T09:13:50.509Z,29.05
2024-02-19T09:16:53.567Z,32.03
2024-02-19T09:19:55.954Z,24.95
2024-02-19T09:22:58.455Z,28.17
2024-02-19T09:26:02.602Z,33.22
2024-02-19T09:29:05.019Z,22.67
2024-02-19T09:32:07.838Z,23.23
2024-02-19T09:35:10.212Z,24.10
2024-02-19T09:38:12.452Z,26.65
2024-02-19T09:41:14.596Z,25.13
2024-02-19T09:44:17.000Z,20.40
2024-02-19T09:47:20.769Z,26.00
2024-02-19T09:50:24.185Z,21.88
2024-02-19T09:53:30.713Z,29.85
2024-02-19T09:56:34.699Z,31.35
2024-02-19T09:59:38.813Z,28.10
2024-02-19T10:02:41.439Z,33.28
2024-02-19T10:05:43.661Z,23.35
2024-02-19T10:08:46.680Z,27.05
2024-02-19T10:11:56.901Z,31.70
2024-02-19T10:14:59.457Z,24.38
2024-02-19T10:18:18.915Z,22.40
2024-02-19T10:21:21.367Z,23.90
2024-02-19T10:24:24.660Z,24.73
2024-02-19T10:27:30.408Z,21.95
2024-02-19T10:30:32.446Z,21.80
2024-02-19T10:33:37.560Z,20.30
2024-02-19T10:36:39.791Z,21.55
2024-02-19T10:39:42.044Z,22.35
2024-02-19T10:42:44.782Z,19.27
2024-02-19T10:45:48.541Z,19.45
2024-02-19T10:48:54.347Z,23.48
2024-02-19T10:51:57.717Z,17.92
2024-02-19T10:55:09.757Z,19.40
2024-02-19T10:58:17.360Z,18.42
2024-02-19T11:01:20.863Z,17.90
2024-02-19T11:04:27.221Z,16.58
2024-02-19T11:07:34.007Z,18.73
2024-02-19T11:10:42.086Z,16.42
2024-02-19T11:13:48.167Z,18.88
2024-02-19T11:16:51.417Z,16.85
2024-02-19T11:19:55.083Z,18.42
2024-02-19T11:22:57.950Z,18.63
2024-02-19T11:26:02.078Z,18.95
2024-02-19T11:29:04.298Z,19.60
2024-02-19T11:32:07.292Z,16.50
2024-02-19T11:35:13.672Z,16.02
2024-02-19T11:38:15.968Z,17.95
2024-02-19T11:41:18.334Z,16.67
2024-02-19T11:44:20.441Z,16.40
2024-02-19T11:47:22.820Z,18.27
2024-02-19T11:50:31.954Z,19.50
2024-02-19T11:53:34.043Z,20.30
2024-02-19T11:57:06.594Z,20.05
2024-02-19T12:00:10.853Z,19.23
2024-02-19T12:03:14.910Z,18.17
2024-02-19T12:06:17.099Z,17.25
2024-02-19T12:09:20.776Z,18.63
2024-02-19T12:12:22.788Z,18.63
2024-02-19T12:15:25.458Z,15.88
2024-02-19T12:18:28.574Z,15.27
2024-02-19T12:21:30.776Z,14.00
2024-02-19T12:24:33.273Z,13.15
2024-02-19T12:27:35.506Z,14.90
2024-02-19T12:30:37.551Z,17.42
2024-02-19T12:33:39.725Z,17.10
2024-02-19T12:36:42.181Z,13.82
2024-02-19T12:39:46.794Z,15.55
2024-02-19T12:42:49.236Z,18.25
2024-02-19T12:45:51.457Z,14.52
2024-02-19T12:48:54.192Z,14.15
2024-02-19T12:51:58.966Z,15.50
2024-02-19T12:55:01.228Z,13.85
2024-02-19T12:58:03.640Z,15.50
2024-02-19T13:01:12.764Z,14.27
2024-02-19T13:04:26.247Z,15.30
2024-02-19T13:07:31.633Z,16.88
2024-02-19T13:10:34.890Z,12.82
2024-02-19T13:13:37.545Z,16.38
2024-02-19T13:16:39.807Z,14.32
2024-02-19T13:19:42.351Z,14.77
2024-02-19T13:22:44.913Z,15.02
2024-02-19T13:25:47.105Z,16.38
2024-02-19T13:28:49.286Z,16.23
2024-02-19T13:31:51.266Z,20.02
2024-02-19T13:34:54.489Z,16.83
2024-02-19T13:37:58.127Z,15.35
2024-02-19T13:41:07.243Z,20.45
2024-02-19T13:44:09.491Z,22.23
2024-02-19T13:47:12.429Z,15.48
2024-02-19T13:50:16.096Z,18.38
2024-02-19T13:53:19.358Z,20.65
2024-02-19T13:56:21.514Z,25.15
2024-02-19T13:59:25.287Z,18.45
2024-02-19T14:02:31.448Z,15.60
2024-02-19T14:05:36.738Z,16.98
2024-02-19T14:08:40.568Z,16.33
2024-02-19T14:11:43.889Z,15.95
2024-02-19T14:14:47.011Z,18.50
2024-02-19T14:17:49.100Z,16.92
2024-02-19T14:20:52.529Z,17.17
2024-02-19T14:23:55.647Z,16.65
2024-02-19T14:26:58.362Z,21.85
2024-02-19T14:30:00.908Z,21.42
2024-02-19T14:33:03.814Z,16.95
2024-02-19T14:36:06.567Z,26.58
2024-02-19T14:39:11.129Z,20.10
2024-02-19T14:42:14.307Z,19.70
2024-02-19T14:45:17.088Z,26.45
2024-02-19T14:48:20.134Z,21.98
2024-02-19T14:51:25.899Z,20.17
2024-02-19T14:54:29.828Z,25.33
2024-02-19T14:57:32.319Z,18.17
2024-02-19T15:00:36.624Z,19.65
2024-02-19T15:03:39.125Z,21.85
2024-02-19T15:06:42.704Z,26.70
2024-02-19T15:09:45.554Z,22.48
2024-02-19T15:12:47.724Z,26.58
2024-02-19T15:15:50.296Z,22.67
2024-02-19T15:18:52.514Z,22.35
2024-02-19T15:21:55.659Z,15.38
2024-02-19T15:24:58.053Z,15.75
2024-02-19T15:28:01.794Z,17.27
2024-02-19T15:31:05.944Z,24.30
2024-02-19T15:34:08.672Z,26.38
2024-02-19T15:37:13.513Z,21.55
2024-02-19T15:40:16.122Z,20.45
2024-02-19T15:43:18.327Z,35.50
2024-02-19T15:46:23.742Z,25.50
2024-02-19T15:49:26.230Z,22.63
2024-02-19T15:52:29.416Z,24.10
2024-02-19T15:55:32.960Z,21.90
2024-02-19T15:58:36.562Z,23.25
2024-02-19T16:01:38.821Z,25.80
2024-02-19T16:04:41.229Z,28.00
2024-02-19T16:07:44.084Z,25.85
2024-02-19T16:10:47.325Z,20.35
2024-02-19T16:13:51.355Z,21.63
2024-02-19T16:16:54.505Z,26.90
2024-02-19T16:19:56.579Z,22.98
2024-02-19T16:22:58.753Z,20.52
2024-02-19T16:26:03.198Z,25.70
2024-02-19T16:29:05.320Z,21.77
2024-02-19T16:32:09.321Z,20.38
2024-02-19T16:35:12.611Z,24.23
2024-02-19T16:38:16.009Z,23.05
2024-02-19T16:41:19.203Z,17.60
2024-02-19T16:44:21.272Z,22.05
2024-02-19T16:47:23.912Z,16.02
2024-02-19T16:50:26.312Z,22.15
2024-02-19T16:53:28.347Z,16.95
2024-02-19T16:56:31.113Z,20.55
2024-02-19T16:59:33.781Z,16.65
2024-02-19T17:02:37.076Z,22.90
2024-02-19T17:05:41.274Z,23.60
2024-02-19T17:08:45.905Z,36.40
2024-02-19T17:11:48.175Z,38.00
2024-02-19T17:14:51.441Z,28.67
2024-02-19T17:17:57.572Z,27.25
2024-02-19T17:21:00.081Z,28.25
2024-02-19T17:24:03.303Z,30.83
2024-02-19T17:27:05.621Z,28.30
2024-02-19T17:30:10.588Z,34.92
2024-02-19T17:33:12.657Z,34.95
2024-02-19T17:36:15.444Z,41.78
2024-02-19T17:39:19.957Z,33.65
2024-02-19T17:42:24.344Z,30.30
2024-02-19T17:45:26.855Z,23.10
2024-02-19T17:48:29.202Z,25.95
2024-02-19T17:51:33.300Z,25.45
2024-02-19T17:54:35.978Z,21.90
2024-02-19T17:57:38.343Z,24.55
2024-02-19T18:00:43.985Z,29.25
2024-02-19T18:03:46.672Z,27.80
2024-02-19T18:06:51.273Z,29.25
2024-02-19T18:09:53.434Z,26.15
2024-02-19T18:12:55.597Z,27.05
2024-02-19T18:15:57.948Z,29.58
2024-02-19T18:19:02.328Z,22.55
2024-02-19T18:22:06.319Z,26.13
2024-02-19T18:25:09.502Z,26.33
2024-02-19T18:28:11.818Z,23.75
2024-02-19T18:31:14.221Z,24.38
2024-02-19T18:34:16.873Z,20.77
2024-02-19T18:37:19.158Z,27.25
2024-02-19T18:40:21.299Z,25.58
2024-02-19T18:43:24.433Z,25.35
2024-02-19T18:46:27.192Z,24.55
2024-02-19T18:49:33.432Z,26.40
2024-02-19T18:52:36.638Z,22.73
2024-02-19T18:55:39.078Z,22.65
2024-02-19T18:58:41.320Z,20.15
2024-02-19T19:01:44.037Z,21.23
2024-02-19T19:04:48.057Z,25.00
2024-02-19T19:07:50.114Z,23.77
2024-02-19T19:10:54.333Z,24.55
2024-02-19T19:13:56.458Z,21.70
2024-02-19T19:17:00.057Z,19.02
2024-02-19T19:20:10.819Z,19.45
2024-02-19T19:23:13.431Z,21.52
2024-02-19T19:26:15.465Z,17.77
2024-02-19T19:29:17.777Z,20.55
2024-02-19T19:32:27.207Z,19.63
2024-02-19T19:35:30.587Z,21.75
2024-02-19T19:38:34.820Z,20.50
2024-02-19T19:41:38.593Z,20.40
2024-02-19T19:44:41.123Z,20.23
2024-02-19T19:47:43.328Z,18.40
2024-02-19T19:50:45.877Z,19.10
2024-02-19T19:53:47.941Z,21.48
2024-02-19T19:56:50.153Z,20.58
2024-02-19T19:59:52.469Z,16.75
2024-02-19T20:02:55.129Z,19.52
2024-02-19T20:05:57.783Z,21.35
2024-02-19T20:09:01.249Z,19.38
2024-02-19T20:12:04.554Z,20.90
2024-02-19T20:15:07.108Z,20.08
2024-02-19T20:18:10.443Z,20.42
2024-02-19T20:21:13.587Z,22.08
2024-02-19T20:24:15.664Z,25.35
2024-02-19T20:27:17.795Z,22.42
2024-02-19T20:30:20.197Z,24.52
2024-02-19T20:33:22.428Z,22.05
2024-02-19T20:36:24.808Z,22.60
2024-02-19T20:39:27.886Z,20.27
2024-02-19T20:42:29.915Z,23.27
2024-02-19T20:45:34.122Z,21.98
2024-02-19T20:48:36.142Z,23.67
2024-02-19T20:51:38.740Z,22.17
2024-02-19T20:54:40.875Z,21.27
2024-02-19T20:57:50.633Z,25.90
2024-02-19T21:00:57.127Z,21.17
2024-02-19T21:03:59.612Z,24.15
2024-02-19T21:07:04.372Z,25.42
2024-02-19T21:10:09.534Z,22.67
2024-02-19T21:13:11.733Z,25.75
2024-02-19T21:16:14.156Z,19.55
2024-02-19T21:19:18.712Z,22.77
2024-02-19T21:22:24.174Z,20.38
2024-02-19T21:25:26.517Z,18.10
2024-02-19T21:28:28.571Z,20.05
2024-02-19T21:31:31.552Z,19.85
2024-02-19T21:34:33.818Z,22.70
2024-02-19T21:37:41.035Z,23.65
2024-02-19T21:40:43.152Z,26.38
2024-02-19T21:43:45.599Z,21.05
2024-02-19T21:46:48.284Z,18.90
2024-02-19T21:49:50.330Z,19.17
2024-02-19T21:52:53.326Z,22.20
2024-02-19T21:55:55.331Z,24.27
2024-02-19T21:58:58.240Z,24.23
2024-02-19T22:02:01.182Z,24.38
2024-02-19T22:05:05.199Z,23.92
2024-02-19T22:08:08.039Z,22.40
2024-02-19T22:11:14.575Z,21.33
2024-02-19T22:14:17.440Z,22.38
2024-02-19T22:17:19.650Z,21.02
2024-02-19T22:20:22.282Z,21.98
2024-02-19T22:23:25.412Z,26.63
2024-02-19T22:26:28.428Z,27.98
2024-02-19T22:29:30.802Z,26.08
2024-02-19T22:32:33.492Z,27.70
2024-02-19T22:35:35.666Z,22.83
2024-02-19T22:38:37.903Z,25.88
2024-02-19T22:41:43.814Z,24.58
2024-02-19T22:44:46.783Z,24.77
2024-02-19T22:47:50.615Z,28.77
2024-02-19T22:50:54.434Z,28.63
2024-02-19T22:53:57.985Z,28.08
2024-02-19T22:57:02.002Z,26.33
2024-02-19T23:00:17.226Z,26.00
2024-02-19T23:03:20.350Z,26.70
2024-02-19T23:06:22.456Z,28.35
2024-02-19T23:09:25.303Z,30.20
2024-02-19T23:12:29.069Z,24.80
2024-02-19T23:15:31.671Z,24.38
2024-02-19T23:18:33.845Z,26.80
2024-02-19T23:21:37.701Z,25.42
2024-02-19T23:24:39.795Z,25.15
2024-02-19T23:27:44.155Z,30.13
2024-02-19T23:30:46.352Z,21.10
2024-02-19T23:33:49.851Z,25.50
2024-02-19T23:36:51.963Z,27.45
2024-02-19T23:39:56.374Z,26.50
2024-02-19T23:42:58.805Z,23.92
2024-02-19T23:46:00.918Z,23.80
2024-02-19T23:49:03.032Z,22.00
2024-02-19T23:52:05.425Z,24.80
2024-02-19T23:55:10.362Z,22.90
2024-02-19T23:58:12.796Z,23.20
